KHEZ/HEZ METAR and TAF weather

Enter ICAO airport designator
Station Type Date Time Source
KHEZ METAR 2020/04/04 20:56 UTC NOAA

KHEZ 042056Z AUTO 01006KT 10SM CLR 21/16 A2998 RMK AO2 SLP150 T02060156 58013


Station Type Date Time Source
KHEZ Decoded METAR 2020/04/04 20:56 UTC NOAA

Natchez, Hardy-Anders Field Natchez-Adams County Airport, MS, United States (KHEZ) 31-37N 091-18W
Apr 04, 2020 - 04:56 PM EDT / 2020.04.04 2056 UTC
Wind: from the N (010 degrees) at 7 MPH (6 KT):0
Visibility: 10 mile(s):0
Sky conditions: clear
Temperature: 69.1 F (20.6 C)
Dew Point: 60.1 F (15.6 C)
Relative Humidity: 73%
Pressure (altimeter): 29.98 in. Hg (1015 hPa)
Pressure tendency: 0.04 inches (1.3 hPa) lower than three hours ago
ob: KHEZ 042056Z AUTO 01006KT 10SM CLR 21/16 A2998 RMK AO2 SLP150 T02060156 58013
cycle: 21

Station Type Date Time Source
KHEZ TAF UTC NOAA

Error!

Example: see airport list